Time;durP1;ratioP1;P1;durP2;ratioP2;P2;SDS_P1;SDS_P2;PMS_P1;PMS_P2;Temp;Humidity;BMP_temperature;BMP_pressure;BME280_temperature;BME280_humidity;BME280_pressure;Samples;Min_cycle;Max_cycle;Signal;HPM_P1;HPM_P2
2022/04/07 00:01:01;;;;;;;4.43;3.37;;;10.50;99.90;;;;;;5068518;28;20196;-35
2022/04/07 00:03:27;;;;;;;3.97;3.63;;;10.40;99.90;;;;;;5047639;28;20471;-39
2022/04/07 00:05:53;;;;;;;5.10;4.07;;;10.50;99.90;;;;;;5051958;28;20550;-39
2022/04/07 00:08:18;;;;;;;3.97;3.57;;;10.30;99.90;;;;;;5048209;28;20319;-39
2022/04/07 00:10:46;;;;;;;4.13;3.63;;;10.50;99.90;;;;;;5049038;28;20609;-39
2022/04/07 00:13:12;;;;;;;4.13;3.00;;;10.30;99.90;;;;;;5079284;28;20180;-40
2022/04/07 00:15:37;;;;;;;3.90;3.13;;;10.20;99.90;;;;;;5055468;28;20834;-37
2022/04/07 00:18:04;;;;;;;4.60;3.10;;;10.20;99.90;;;;;;5048099;28;20431;-38
2022/04/07 00:20:30;;;;;;;5.17;2.60;;;10.10;99.90;;;;;;5060970;28;20183;-34
2022/04/07 00:22:57;;;;;;;2.53;2.33;;;10.00;99.90;;;;;;5048804;28;20507;-40
2022/04/07 00:25:25;;;;;;;3.50;2.20;;;10.20;99.90;;;;;;5046943;28;20197;-39
2022/04/07 00:27:51;;;;;;;2.97;2.00;;;10.10;99.90;;;;;;5061908;28;20418;-39
2022/04/07 00:30:20;;;;;;;1.90;1.77;;;10.00;99.90;;;;;;5074026;28;20513;-34
2022/04/07 00:32:46;;;;;;;2.17;1.67;;;10.00;99.90;;;;;;5047956;28;20420;-37
2022/04/07 00:35:13;;;;;;;1.97;1.87;;;9.90;99.90;;;;;;5056843;28;20544;-38
2022/04/07 00:37:39;;;;;;;2.10;1.73;;;10.00;99.90;;;;;;5047744;28;20412;-39
2022/04/07 00:40:07;;;;;;;1.57;1.37;;;9.80;99.90;;;;;;5046905;28;20507;-35
2022/04/07 00:42:32;;;;;;;1.80;1.50;;;9.90;99.90;;;;;;5048909;28;20444;-39
2022/04/07 00:44:59;;;;;;;2.30;1.87;;;9.90;99.90;;;;;;5066383;28;20810;-39
2022/04/07 00:47:27;;;;;;;3.07;1.90;;;10.10;99.90;;;;;;5047742;28;20198;-40
2022/04/07 00:49:53;;;;;;;2.50;1.80;;;10.10;99.90;;;;;;5051664;28;20435;-33
2022/04/07 00:52:19;;;;;;;1.47;1.37;;;9.90;99.90;;;;;;5047393;28;20435;-39
2022/04/07 00:54:46;;;;;;;4.67;1.87;;;10.10;99.90;;;;;;5047543;28;20803;-37
2022/04/07 00:57:12;;;;;;;1.70;1.60;;;10.00;99.90;;;;;;5052047;28;20447;-37
2022/04/07 00:59:40;;;;;;;2.77;1.87;;;10.10;99.90;;;;;;5066929;28;20415;-35
2022/04/07 01:02:06;;;;;;;3.20;1.80;;;10.00;99.90;;;;;;5049170;28;20412;-34
2022/04/07 01:04:33;;;;;;;3.60;2.17;;;10.10;99.90;;;;;;5048017;28;20431;-41
2022/04/07 01:06:59;;;;;;;3.90;1.70;;;10.00;99.90;;;;;;5047278;28;20786;-36
2022/04/07 01:09:24;;;;;;;2.37;2.07;;;9.90;99.90;;;;;;5047782;28;20416;-35
2022/04/07 01:11:52;;;;;;;2.67;2.10;;;10.10;99.90;;;;;;5057029;28;20299;-38
2022/04/07 01:14:18;;;;;;;2.87;1.90;;;10.00;99.90;;;;;;5062978;28;20514;-39
2022/04/07 01:16:43;;;;;;;3.63;2.00;;;9.90;99.90;;;;;;5056367;28;20507;-38
2022/04/07 01:19:09;;;;;;;2.57;2.03;;;9.80;99.90;;;;;;5047321;28;20190;-40
2022/04/07 01:21:37;;;;;;;3.33;2.40;;;9.90;99.90;;;;;;5055346;28;20672;-37
2022/04/07 01:24:10;;;;;;;4.00;2.23;;;9.90;99.90;;;;;;5047896;28;20724;-39
2022/04/07 01:26:37;;;;;;;2.70;2.00;;;9.90;99.90;;;;;;5048748;28;20432;-35
2022/04/07 01:29:04;;;;;;;4.57;1.80;;;9.90;99.90;;;;;;5066538;28;20464;-37
2022/04/07 01:31:31;;;;;;;2.97;2.30;;;9.80;99.90;;;;;;5057203;28;20424;-37
2022/04/07 01:33:58;;;;;;;2.73;2.10;;;9.80;99.90;;;;;;5047353;28;20452;-40
2022/04/07 01:36:30;;;;;;;3.87;1.80;;;10.00;99.90;;;;;;5053293;28;20463;-34
2022/04/07 01:39:00;;;;;;;3.07;2.03;;;9.90;99.90;;;;;;5051588;28;20420;-37
2022/04/07 01:41:26;;;;;;;1.90;1.50;;;10.00;99.90;;;;;;5050196;28;20460;-37
2022/04/07 01:43:56;;;;;;;3.57;2.27;;;10.00;99.90;;;;;;5075487;28;20415;-34
2022/04/07 01:46:22;;;;;;;2.90;1.80;;;10.00;99.90;;;;;;5061255;28;20448;-36
2022/04/07 01:48:50;;;;;;;2.13;1.87;;;10.00;99.90;;;;;;5051066;28;20523;-36
2022/04/07 01:51:16;;;;;;;4.40;1.40;;;10.00;99.90;;;;;;5051297;28;20424;-37
2022/04/07 01:53:43;;;;;;;2.33;1.43;;;10.00;99.90;;;;;;5050984;28;20428;-35
2022/04/07 01:56:09;;;;;;;11.20;1.97;;;10.00;99.90;;;;;;5051344;28;20463;-35
2022/04/07 01:58:36;;;;;;;2.10;1.70;;;9.90;99.90;;;;;;5061330;28;20454;-35
2022/04/07 02:01:03;;;;;;;2.17;1.57;;;10.20;99.90;;;;;;5073432;28;20827;-40
2022/04/07 02:03:29;;;;;;;2.10;1.60;;;10.10;99.90;;;;;;5047922;28;20435;-37
2022/04/07 02:05:55;;;;;;;2.60;1.70;;;10.30;99.90;;;;;;5060651;28;20418;-37
2022/04/07 02:08:20;;;;;;;3.63;1.27;;;10.10;99.90;;;;;;5050963;28;20189;-40
2022/04/07 02:10:46;;;;;;;2.37;1.70;;;10.10;99.90;;;;;;5050141;28;20277;-37
2022/04/07 02:13:14;;;;;;;3.20;1.90;;;10.10;99.90;;;;;;5063536;28;20288;-38
2022/04/07 02:15:39;;;;;;;1.93;1.77;;;10.10;99.90;;;;;;5070231;28;20213;-40
2022/04/07 02:18:05;;;;;;;5.77;1.63;;;10.30;99.90;;;;;;5050264;28;20478;-38
2022/04/07 02:20:31;;;;;;;2.33;1.60;;;10.30;99.90;;;;;;5056242;28;20193;-40
2022/04/07 02:22:57;;;;;;;7.43;2.33;;;10.10;99.90;;;;;;5051418;28;20181;-37
2022/04/07 02:25:27;;;;;;;2.50;1.70;;;10.20;99.90;;;;;;5050814;28;20230;-36
2022/04/07 02:27:53;;;;;;;3.40;1.90;;;10.20;99.90;;;;;;5062386;28;20414;-34
2022/04/07 02:30:19;;;;;;;3.23;1.60;;;10.10;99.90;;;;;;5064488;28;20450;-40
2022/04/07 02:32:45;;;;;;;2.20;1.90;;;10.10;99.90;;;;;;5061168;28;20740;-40
2022/04/07 02:35:12;;;;;;;4.40;2.03;;;10.20;99.90;;;;;;5052262;28;20217;-37
2022/04/07 02:37:39;;;;;;;2.50;1.77;;;10.10;99.90;;;;;;5050490;28;20177;-37
2022/04/07 02:40:05;;;;;;;3.90;1.93;;;10.00;99.90;;;;;;5049634;28;20515;-39
2022/04/07 02:42:31;;;;;;;5.87;1.87;;;10.00;99.90;;;;;;5050308;28;20516;-36
2022/04/07 02:44:56;;;;;;;1.67;1.57;;;9.90;99.90;;;;;;5060530;28;20509;-37
2022/04/07 02:47:32;;;;;;;4.57;1.83;;;10.00;99.90;;;;;;5054655;28;20699;-40
2022/04/07 02:49:59;;;;;;;3.30;1.90;;;10.00;99.90;;;;;;5049257;28;20214;-37
2022/04/07 02:52:24;;;;;;;3.70;1.93;;;10.10;99.90;;;;;;5059224;28;20772;-41
2022/04/07 02:54:50;;;;;;;6.73;1.97;;;10.10;99.90;;;;;;5050050;28;20468;-36
2022/04/07 02:57:15;;;;;;;2.33;2.10;;;10.10;99.90;;;;;;5049119;28;20194;-34
2022/04/07 02:59:41;;;;;;;4.83;1.87;;;10.30;99.90;;;;;;5054862;28;20182;-40
2022/04/07 03:02:07;;;;;;;2.50;2.07;;;10.10;99.90;;;;;;5064159;28;20185;-39
2022/04/07 03:04:32;;;;;;;2.40;2.00;;;9.90;99.90;;;;;;5048525;28;20416;-38
2022/04/07 03:06:59;;;;;;;2.17;1.97;;;10.10;99.90;;;;;;5054054;28;20308;-35
2022/04/07 03:09:25;;;;;;;2.33;2.13;;;10.00;99.90;;;;;;5049672;28;20511;-35
2022/04/07 03:11:50;;;;;;;2.63;1.77;;;10.10;99.90;;;;;;5047955;28;20201;-38
2022/04/07 03:14:16;;;;;;;2.30;2.10;;;10.10;99.90;;;;;;5054627;28;20192;-34
2022/04/07 03:16:42;;;;;;;2.20;1.83;;;10.20;99.90;;;;;;5065985;28;20192;-37
2022/04/07 03:19:08;;;;;;;3.27;2.00;;;10.10;99.90;;;;;;5049619;28;20598;-37
2022/04/07 03:21:34;;;;;;;2.73;2.00;;;10.00;99.90;;;;;;5050836;28;20516;-38
2022/04/07 03:24:00;;;;;;;3.40;1.73;;;10.10;99.90;;;;;;5050330;28;21000;-37
2022/04/07 03:26:25;;;;;;;4.00;2.37;;;10.00;99.90;;;;;;5049438;28;20205;-36
2022/04/07 03:28:51;;;;;;;2.50;2.00;;;9.70;99.90;;;;;;5062913;28;20563;-39
2022/04/07 03:31:17;;;;;;;2.60;1.90;;;10.00;99.90;;;;;;5066196;28;20240;-35
2022/04/07 03:33:44;;;;;;;2.23;1.73;;;10.00;99.90;;;;;;5049146;28;20737;-36
2022/04/07 03:36:10;;;;;;;2.60;2.07;;;10.10;99.90;;;;;;5057071;28;20765;-38
2022/04/07 03:38:35;;;;;;;1.90;1.47;;;10.20;99.90;;;;;;5051873;28;20424;-37
2022/04/07 03:41:01;;;;;;;2.63;1.30;;;10.00;99.90;;;;;;5048231;28;20193;-36
2022/04/07 03:43:27;;;;;;;1.90;1.57;;;10.00;99.90;;;;;;5059478;28;20276;-34
2022/04/07 03:45:52;;;;;;;4.17;1.73;;;10.10;99.90;;;;;;5063117;28;20290;-39
2022/04/07 03:48:18;;;;;;;2.73;1.60;;;10.10;99.90;;;;;;5051790;28;20334;-38
2022/04/07 03:50:43;;;;;;;1.87;1.40;;;10.00;99.90;;;;;;5051541;28;20596;-35
2022/04/07 03:53:09;;;;;;;2.10;1.33;;;10.10;99.90;;;;;;5051830;28;20186;-37
2022/04/07 03:55:35;;;;;;;2.00;1.50;;;10.10;99.90;;;;;;5048662;28;20758;-38
2022/04/07 03:58:00;;;;;;;2.23;1.50;;;10.10;99.90;;;;;;5051385;28;20737;-38
2022/04/07 04:00:27;;;;;;;3.30;1.27;;;10.30;99.90;;;;;;5075557;28;20189;-36
2022/04/07 04:02:52;;;;;;;2.43;1.10;;;10.10;99.90;;;;;;5052135;28;20228;-37
2022/04/07 04:05:18;;;;;;;1.80;1.10;;;10.10;99.90;;;;;;5047153;28;20923;-39
2022/04/07 04:07:44;;;;;;;2.87;1.77;;;10.30;99.90;;;;;;5051402;28;20190;-37
2022/04/07 04:10:10;;;;;;;3.93;1.20;;;10.10;99.90;;;;;;5048164;28;20424;-33
2022/04/07 04:12:36;;;;;;;1.43;1.07;;;10.20;99.90;;;;;;5048275;28;20443;-35
2022/04/07 04:15:03;;;;;;;1.50;1.13;;;10.10;99.90;;;;;;5066940;28;20450;-39
2022/04/07 04:17:32;;;;;;;2.13;1.20;;;10.20;99.90;;;;;;5062211;28;20420;-40
2022/04/07 04:19:59;;;;;;;2.63;1.37;;;10.10;99.90;;;;;;5047859;28;20429;-35
2022/04/07 04:22:25;;;;;;;2.17;1.00;;;10.30;99.90;;;;;;5059082;28;20531;-38
2022/04/07 04:24:50;;;;;;;4.60;1.30;;;10.30;99.90;;;;;;5047900;28;20910;-37
2022/04/07 04:27:16;;;;;;;1.27;1.13;;;10.30;99.90;;;;;;5047742;28;20277;-38
2022/04/07 04:29:44;;;;;;;2.30;1.20;;;10.30;99.90;;;;;;5057645;28;20223;-36
2022/04/07 04:32:10;;;;;;;4.07;1.23;;;10.50;99.90;;;;;;5070258;28;20243;-34
2022/04/07 04:34:36;;;;;;;3.33;1.53;;;10.40;99.90;;;;;;5047904;28;20460;-37
2022/04/07 04:37:02;;;;;;;2.00;1.20;;;10.40;99.90;;;;;;5056346;28;20217;-38
2022/04/07 04:39:27;;;;;;;1.63;1.53;;;10.30;99.90;;;;;;5047501;28;20243;-37
2022/04/07 04:41:53;;;;;;;1.97;1.07;;;10.30;99.90;;;;;;5047452;28;20197;-36
2022/04/07 04:44:19;;;;;;;1.93;1.53;;;10.30;99.90;;;;;;5051235;28;20649;-36
2022/04/07 04:46:44;;;;;;;1.70;1.13;;;10.40;99.90;;;;;;5051705;28;20197;-32
2022/04/07 04:49:10;;;;;;;3.03;2.03;;;10.40;99.90;;;;;;5075033;28;20207;-38
2022/04/07 04:51:36;;;;;;;3.00;1.57;;;10.50;99.90;;;;;;5059025;28;20193;-32
2022/04/07 04:54:01;;;;;;;2.67;1.80;;;10.40;99.90;;;;;;5058311;28;20210;-39
2022/04/07 04:56:27;;;;;;;2.20;1.83;;;10.40;99.90;;;;;;5065537;28;20632;-37
2022/04/07 04:58:54;;;;;;;5.40;2.30;;;10.40;99.90;;;;;;5060755;28;20601;-40
2022/04/07 05:01:20;;;;;;;3.67;2.43;;;10.30;99.90;;;;;;5077428;28;20248;-37
2022/04/07 05:03:46;;;;;;;5.23;2.30;;;10.50;99.90;;;;;;5047760;28;20503;-35
2022/04/07 05:06:11;;;;;;;3.10;2.20;;;10.20;99.90;;;;;;5049942;28;20193;-37
2022/04/07 05:08:37;;;;;;;4.87;2.50;;;10.10;99.90;;;;;;5049021;28;20192;-38
2022/04/07 05:11:03;;;;;;;2.30;2.10;;;10.10;99.90;;;;;;5047643;28;20186;-35
2022/04/07 05:13:28;;;;;;;3.13;2.67;;;10.10;99.90;;;;;;5049269;28;20586;-40
2022/04/07 05:15:54;;;;;;;4.83;3.30;;;10.10;99.90;;;;;;5057627;28;20257;-37
2022/04/07 05:18:20;;;;;;;6.63;3.03;;;10.10;99.90;;;;;;5060168;28;20546;-35
2022/04/07 05:20:45;;;;;;;3.23;2.57;;;10.10;99.90;;;;;;5048361;28;20186;-37
2022/04/07 05:23:11;;;;;;;4.13;2.80;;;10.10;99.90;;;;;;5056338;28;20193;-40
2022/04/07 05:25:37;;;;;;;3.20;2.63;;;10.10;99.90;;;;;;5048998;28;20201;-35
2022/04/07 05:28:03;;;;;;;2.77;2.40;;;10.20;99.90;;;;;;5048637;28;20729;-40
2022/04/07 05:30:28;;;;;;;3.83;1.90;;;10.30;99.90;;;;;;5053845;28;20789;-35
2022/04/07 05:32:54;;;;;;;3.20;2.20;;;10.30;99.90;;;;;;5059003;28;20430;-38
2022/04/07 05:35:20;;;;;;;5.30;2.50;;;10.20;99.90;;;;;;5064922;28;20209;-38
2022/04/07 05:37:46;;;;;;;2.33;2.13;;;10.30;99.90;;;;;;5054276;28;20190;-38
2022/04/07 05:40:13;;;;;;;3.10;2.27;;;10.10;99.90;;;;;;5048340;28;20412;-38
2022/04/07 05:42:39;;;;;;;4.40;2.60;;;10.10;99.90;;;;;;5048352;28;20186;-36
2022/04/07 05:45:06;;;;;;;2.10;1.90;;;10.10;99.90;;;;;;5055772;28;20505;-37
2022/04/07 05:47:38;;;;;;;1.87;1.73;;;10.10;99.90;;;;;;5069934;28;20416;-32
2022/04/07 05:50:04;;;;;;;3.10;2.53;;;10.00;99.90;;;;;;5048231;28;20420;-39
2022/04/07 05:52:30;;;;;;;3.20;2.47;;;10.00;99.90;;;;;;5049367;28;20868;-39
2022/04/07 05:54:56;;;;;;;2.90;2.40;;;10.00;99.90;;;;;;5048733;28;20547;-39
2022/04/07 05:57:25;;;;;;;3.00;2.67;;;10.10;99.90;;;;;;5048637;28;20258;-39
2022/04/07 05:59:50;;;;;;;3.10;2.70;;;9.90;99.90;;;;;;5064923;28;20536;-40
2022/04/07 06:02:16;;;;;;;3.13;2.63;;;10.00;99.90;;;;;;5066591;28;20423;-38
2022/04/07 06:04:42;;;;;;;2.77;2.47;;;10.00;99.90;;;;;;5047020;28;20227;-37
2022/04/07 06:07:07;;;;;;;4.70;2.83;;;10.00;99.90;;;;;;5055668;28;20192;-39
2022/04/07 06:09:34;;;;;;;2.20;2.00;;;10.00;99.90;;;;;;5063004;28;20242;-36
2022/04/07 06:12:00;;;;;;;2.87;2.50;;;10.30;99.90;;;;;;5069363;28;20261;-36
2022/04/07 06:14:26;;;;;;;2.23;2.03;;;10.30;99.90;;;;;;5069562;28;20435;-37
2022/04/07 06:16:52;;;;;;;3.17;2.20;;;10.10;99.90;;;;;;5076385;28;20422;-37
2022/04/07 06:19:17;;;;;;;3.93;3.00;;;10.00;99.90;;;;;;5053739;28;20214;-35
2022/04/07 06:21:43;;;;;;;2.67;2.27;;;10.20;99.90;;;;;;5078367;28;20217;-40
2022/04/07 06:24:09;;;;;;;3.57;2.03;;;10.10;99.90;;;;;;5059713;28;20712;-37
2022/04/07 06:26:35;;;;;;;4.77;2.43;;;10.00;99.90;;;;;;5082063;28;20224;-36
2022/04/07 06:29:00;;;;;;;2.73;2.00;;;10.00;99.90;;;;;;5063361;28;20226;-36
2022/04/07 06:31:26;;;;;;;2.30;2.10;;;10.10;99.90;;;;;;5076549;28;20414;-39
2022/04/07 06:33:52;;;;;;;4.40;1.90;;;10.10;99.90;;;;;;5053841;28;20672;-37
2022/04/07 06:36:18;;;;;;;2.30;1.87;;;9.90;99.90;;;;;;5050651;28;20209;-40
2022/04/07 06:38:43;;;;;;;5.00;2.37;;;9.90;99.90;;;;;;5052628;28;20481;-36
2022/04/07 06:41:09;;;;;;;3.77;2.23;;;10.00;99.90;;;;;;5051413;28;20232;-37
2022/04/07 06:43:35;;;;;;;2.70;2.13;;;9.90;99.90;;;;;;5055327;28;20277;-37
2022/04/07 06:46:00;;;;;;;2.40;2.20;;;10.00;99.90;;;;;;5065890;28;20256;-36
2022/04/07 06:48:26;;;;;;;2.93;2.20;;;9.90;99.90;;;;;;5070288;28;20526;-39
2022/04/07 06:50:52;;;;;;;2.47;2.10;;;9.90;99.90;;;;;;5060611;28;20201;-39
2022/04/07 06:53:17;;;;;;;2.80;1.70;;;9.90;99.90;;;;;;5060977;28;20189;-35
2022/04/07 06:55:43;;;;;;;4.07;1.70;;;9.90;99.90;;;;;;5062165;28;20300;-36
2022/04/07 06:58:10;;;;;;;1.73;1.53;;;10.10;99.90;;;;;;5058673;28;20190;-37
2022/04/07 07:00:42;;;;;;;1.60;1.50;;;9.90;99.90;;;;;;5065838;28;20422;-35
2022/04/07 07:03:08;;;;;;;3.80;1.73;;;9.90;99.90;;;;;;5075235;28;20431;-37
2022/04/07 07:05:36;;;;;;;1.60;1.50;;;10.10;99.90;;;;;;5062641;28;20485;-34
2022/04/07 07:08:18;;;;;;;3.13;1.90;;;9.90;99.90;;;;;;5051635;28;20388;-38
2022/04/07 07:10:45;;;;;;;3.00;1.77;;;10.10;99.90;;;;;;5050661;28;20481;-40
2022/04/07 07:13:12;;;;;;;3.03;2.23;;;10.10;99.90;;;;;;5051399;28;20434;-38
2022/04/07 07:15:39;;;;;;;2.60;2.00;;;10.10;99.90;;;;;;5075425;28;20564;-39
2022/04/07 07:18:05;;;;;;;3.17;1.83;;;10.10;99.90;;;;;;5069869;28;20423;-39
2022/04/07 07:20:31;;;;;;;2.23;1.60;;;10.30;99.90;;;;;;5050569;28;20829;-39
2022/04/07 07:22:56;;;;;;;2.40;2.20;;;10.10;99.90;;;;;;5052071;28;20427;-35
2022/04/07 07:25:22;;;;;;;1.43;1.33;;;10.10;99.90;;;;;;5057783;28;20196;-39
2022/04/07 07:27:48;;;;;;;1.80;1.23;;;10.10;99.90;;;;;;5061651;28;20197;-39
2022/04/07 07:30:15;;;;;;;1.70;1.10;;;10.10;99.90;;;;;;5058902;28;20217;-38
2022/04/07 07:32:46;;;;;;;1.07;0.97;;;10.10;99.90;;;;;;5061040;28;20186;-37
2022/04/07 07:35:12;;;;;;;2.37;1.20;;;10.10;99.90;;;;;;5057489;28;20471;-35
2022/04/07 07:37:56;;;;;;;1.30;1.20;;;10.10;99.90;;;;;;5059904;28;20427;-35
2022/04/07 07:40:24;;;;;;;4.40;1.40;;;10.10;99.90;;;;;;5052135;28;20508;-40
2022/04/07 07:42:56;;;;;;;1.43;1.00;;;10.00;99.90;;;;;;5050367;28;20912;-36
2022/04/07 07:45:22;;;;;;;2.73;1.20;;;10.00;99.90;;;;;;5046338;28;20477;-38
2022/04/07 07:47:48;;;;;;;1.33;1.17;;;10.00;99.90;;;;;;5072143;28;20780;-38
2022/04/07 07:50:14;;;;;;;1.20;1.10;;;10.00;99.90;;;;;;5049937;28;20432;-35
2022/04/07 07:52:40;;;;;;;2.33;1.83;;;10.00;99.90;;;;;;5055115;28;20192;-33
2022/04/07 07:55:06;;;;;;;1.40;1.00;;;10.10;99.90;;;;;;5051367;28;20506;-40
2022/04/07 07:57:32;;;;;;;8.80;2.77;;;9.90;99.90;;;;;;5050179;28;20209;-37
2022/04/07 07:59:58;;;;;;;2.03;1.00;;;10.00;99.90;;;;;;5053086;28;20441;-35
2022/04/07 08:02:24;;;;;;;5.53;1.80;;;9.90;99.90;;;;;;5070202;28;20291;-34
2022/04/07 08:04:50;;;;;;;1.83;1.10;;;10.00;99.90;;;;;;5049593;28;20519;-39
2022/04/07 08:07:16;;;;;;;1.43;0.90;;;10.00;99.90;;;;;;5050945;28;20562;-40
2022/04/07 08:09:41;;;;;;;1.30;1.00;;;10.10;99.90;;;;;;5049794;28;20190;-37
2022/04/07 08:12:08;;;;;;;1.30;0.90;;;10.00;99.90;;;;;;5050061;28;20243;-38
2022/04/07 08:14:33;;;;;;;1.77;1.10;;;10.00;99.90;;;;;;5050849;28;20198;-40
2022/04/07 08:16:59;;;;;;;1.30;1.07;;;9.90;99.90;;;;;;5067979;28;20425;-38
2022/04/07 08:19:25;;;;;;;1.30;1.00;;;9.90;99.90;;;;;;5061095;28;20268;-39
2022/04/07 08:21:51;;;;;;;0.80;0.80;;;10.10;99.90;;;;;;5049578;28;20372;-36
2022/04/07 08:24:19;;;;;;;1.10;1.00;;;10.00;99.90;;;;;;5060427;28;20192;-41
2022/04/07 08:26:45;;;;;;;1.10;1.00;;;9.90;99.90;;;;;;5050035;28;20456;-40
2022/04/07 08:29:11;;;;;;;0.80;0.73;;;9.90;99.90;;;;;;5049424;28;20424;-35
2022/04/07 08:31:36;;;;;;;1.43;0.80;;;9.90;99.90;;;;;;5067666;28;20459;-40
2022/04/07 08:34:02;;;;;;;1.03;0.70;;;10.10;99.90;;;;;;5062732;28;20279;-40
2022/04/07 08:36:28;;;;;;;1.80;0.50;;;10.20;99.90;;;;;;5049659;28;20212;-37
2022/04/07 08:38:53;;;;;;;1.50;1.00;;;10.00;99.90;;;;;;5056504;28;20197;-39
2022/04/07 08:41:20;;;;;;;1.60;0.80;;;10.20;99.90;;;;;;5048857;28;20177;-37
2022/04/07 08:43:46;;;;;;;1.33;1.20;;;10.10;99.90;;;;;;5049702;28;20214;-39
2022/04/07 08:46:13;;;;;;;1.17;0.87;;;10.40;99.90;;;;;;5068428;28;20470;-37
2022/04/07 08:48:42;;;;;;;0.90;0.80;;;10.20;99.90;;;;;;5069814;28;20193;-40
2022/04/07 08:51:08;;;;;;;1.30;1.10;;;10.30;99.90;;;;;;5048900;28;20477;-34
2022/04/07 08:53:37;;;;;;;3.03;0.80;;;10.20;99.90;;;;;;5051159;28;20935;-37
2022/04/07 08:56:04;;;;;;;1.50;0.50;;;10.20;99.90;;;;;;5049387;28;20512;-37
2022/04/07 08:58:30;;;;;;;1.40;0.70;;;10.20;99.90;;;;;;5049180;28;20428;-38
2022/04/07 09:00:56;;;;;;;0.87;0.67;;;10.20;99.90;;;;;;5058333;28;20868;-37
2022/04/07 09:03:22;;;;;;;1.43;0.70;;;10.10;99.90;;;;;;5066238;28;20488;-35
2022/04/07 09:06:06;;;;;;;1.43;0.97;;;10.30;99.90;;;;;;5047974;28;20189;-38
2022/04/07 09:08:37;;;;;;;0.80;0.80;;;10.00;99.90;;;;;;5056401;28;20419;-37
2022/04/07 09:11:05;;;;;;;1.33;0.80;;;10.20;99.90;;;;;;5051706;28;20925;-34
2022/04/07 09:13:42;;;;;;;0.93;0.93;;;10.10;99.90;;;;;;5049071;28;20478;-40
2022/04/07 09:16:12;;;;;;;1.03;0.93;;;10.20;99.90;;;;;;5063210;28;20489;-40
2022/04/07 09:18:42;;;;;;;1.20;1.10;;;10.30;99.90;;;;;;5076542;28;20430;-36
2022/04/07 09:21:27;;;;;;;1.97;1.37;;;10.30;99.90;;;;;;5037446;28;20435;-36
2022/04/07 09:23:56;;;;;;;2.00;1.50;;;10.40;99.90;;;;;;5059103;28;20560;-39
2022/04/07 09:26:22;;;;;;;1.60;1.40;;;10.40;99.90;;;;;;5049254;28;20489;-39
2022/04/07 09:28:48;;;;;;;2.03;1.30;;;10.40;99.90;;;;;;5048850;28;20432;-35
2022/04/07 09:31:15;;;;;;;1.93;1.73;;;10.50;99.90;;;;;;5061961;28;20453;-34
2022/04/07 09:33:41;;;;;;;1.10;1.00;;;10.50;99.90;;;;;;5070846;28;20441;-39
2022/04/07 09:36:19;;;;;;;3.40;0.80;;;10.80;99.90;;;;;;5059546;28;20467;-39
2022/04/07 09:38:52;;;;;;;0.87;0.57;;;10.70;99.90;;;;;;5051186;28;20451;-35
2022/04/07 09:41:21;;;;;;;1.57;0.40;;;10.50;99.90;;;;;;5048213;28;20439;-37
2022/04/07 09:44:00;;;;;;;0.90;0.40;;;10.30;99.90;;;;;;5048706;28;20790;-38
2022/04/07 09:46:35;;;;;;;3.37;0.40;;;10.00;99.90;;;;;;5067464;28;20442;-39
2022/04/07 09:49:09;;;;;;;1.67;0.33;;;9.80;99.90;;;;;;5059087;28;20416;-37
2022/04/07 09:51:51;;;;;;;1.40;0.40;;;9.60;99.90;;;;;;5050219;28;20428;-33
2022/04/07 09:54:18;;;;;;;0.60;0.37;;;9.50;99.90;;;;;;5059944;28;20427;-35
2022/04/07 09:56:46;;;;;;;0.83;0.70;;;9.50;99.90;;;;;;5049448;28;20963;-39
2022/04/07 09:59:16;;;;;;;1.03;0.60;;;9.40;99.90;;;;;;5052420;28;20485;-34
2022/04/07 10:01:43;;;;;;;1.57;0.80;;;9.30;99.90;;;;;;5054899;28;20435;-40
2022/04/07 10:04:10;;;;;;;1.37;0.80;;;9.30;99.90;;;;;;5057654;28;20424;-38
2022/04/07 10:06:37;;;;;;;0.70;0.67;;;9.30;99.90;;;;;;5052341;28;20821;-37
2022/04/07 10:09:06;;;;;;;1.43;0.90;;;9.30;99.90;;;;;;5059772;28;20431;-39
2022/04/07 10:11:33;;;;;;;1.67;1.13;;;9.20;99.90;;;;;;5051880;28;20515;-37
2022/04/07 10:13:59;;;;;;;1.10;1.00;;;9.40;99.90;;;;;;5052338;28;20424;-40
2022/04/07 10:16:25;;;;;;;0.80;0.80;;;9.40;99.90;;;;;;5054429;28;20507;-36
2022/04/07 10:18:59;;;;;;;1.23;1.10;;;9.30;99.90;;;;;;5074208;28;20430;-37
2022/04/07 10:21:34;;;;;;;0.77;0.77;;;9.40;99.90;;;;;;5050449;28;20462;-36
2022/04/07 10:24:21;;;;;;;0.90;0.80;;;9.40;99.90;;;;;;5051768;28;20424;-38
2022/04/07 10:26:48;;;;;;;3.13;0.97;;;9.30;99.90;;;;;;5052399;28;20428;-38
2022/04/07 10:29:23;;;;;;;1.00;0.73;;;9.30;99.90;;;;;;5051944;28;20451;-35
2022/04/07 10:32:11;;;;;;;1.37;0.70;;;9.40;99.90;;;;;;5061678;28;20795;-36
2022/04/07 10:34:42;;;;;;;2.53;1.27;;;9.40;99.90;;;;;;5075889;28;20477;-34
2022/04/07 10:37:09;;;;;;;1.17;1.03;;;9.50;99.90;;;;;;5054529;28;20489;-38
2022/04/07 10:39:39;;;;;;;1.03;0.90;;;9.70;99.90;;;;;;5062755;28;20857;-36
2022/04/07 10:42:05;;;;;;;1.40;1.30;;;9.70;99.90;;;;;;5069833;28;20494;-35
2022/04/07 10:44:33;;;;;;;3.03;1.40;;;10.00;99.90;;;;;;5071920;28;20455;-38
2022/04/07 10:47:04;;;;;;;1.67;1.53;;;9.90;99.90;;;;;;5072306;28;20956;-36
2022/04/07 10:49:31;;;;;;;1.70;1.50;;;10.20;99.90;;;;;;5069755;28;20466;-36
2022/04/07 10:51:59;;;;;;;1.70;1.60;;;10.10;99.90;;;;;;5051116;28;20424;-37
2022/04/07 10:54:31;;;;;;;2.20;2.00;;;10.40;99.90;;;;;;5060251;28;20419;-36
2022/04/07 10:57:01;;;;;;;2.77;1.53;;;10.40;99.90;;;;;;5051582;28;20535;-34
2022/04/07 10:59:34;;;;;;;2.13;1.63;;;10.60;99.90;;;;;;5060256;28;20518;-36
2022/04/07 11:02:04;;;;;;;2.40;1.50;;;10.80;99.90;;;;;;5066717;28;20438;-41
2022/04/07 11:04:30;;;;;;;1.93;1.50;;;10.90;99.90;;;;;;5064457;28;20503;-35
2022/04/07 11:07:07;;;;;;;2.67;1.20;;;11.20;99.90;;;;;;5057042;28;20428;-38
2022/04/07 11:09:46;;;;;;;2.50;1.77;;;11.30;99.90;;;;;;5063279;28;20767;-38
2022/04/07 11:12:25;;;;;;;1.43;1.23;;;11.40;99.90;;;;;;5051130;28;20961;-38
2022/04/07 11:15:12;;;;;;;1.93;1.53;;;11.60;99.90;;;;;;5051420;28;20606;-37
2022/04/07 11:17:44;;;;;;;1.50;1.30;;;11.60;99.90;;;;;;5073482;28;20450;-41
2022/04/07 11:20:22;;;;;;;3.50;1.17;;;11.80;99.90;;;;;;5065152;28;20416;-38
2022/04/07 11:22:51;;;;;;;3.00;1.00;;;12.10;99.90;;;;;;5051702;28;20439;-41
2022/04/07 11:25:40;;;;;;;1.40;1.00;;;12.20;99.90;;;;;;5060072;28;20438;-41
2022/04/07 11:28:15;;;;;;;1.43;1.00;;;12.30;99.90;;;;;;5051284;28;20481;-36
2022/04/07 11:30:44;;;;;;;1.13;1.03;;;12.50;99.90;;;;;;5054627;28;20591;-38
2022/04/07 11:33:25;;;;;;;1.23;1.10;;;12.60;99.90;;;;;;5068197;28;20461;-39
2022/04/07 11:36:00;;;;;;;1.43;1.30;;;12.60;99.90;;;;;;5064508;28;20459;-39
2022/04/07 11:38:34;;;;;;;1.40;1.20;;;12.50;99.90;;;;;;5050471;28;20420;-37
2022/04/07 11:41:05;;;;;;;1.23;1.00;;;12.40;99.90;;;;;;5060068;28;20478;-37
2022/04/07 11:43:33;;;;;;;1.33;1.20;;;12.20;99.90;;;;;;5070641;28;20522;-40
2022/04/07 11:45:59;;;;;;;1.40;1.30;;;11.80;99.90;;;;;;5067509;28;20447;-38
2022/04/07 11:48:37;;;;;;;1.40;1.30;;;11.90;99.90;;;;;;5069599;28;20451;-37
2022/04/07 11:51:11;;;;;;;2.27;1.43;;;11.80;99.90;;;;;;5050046;28;20523;-36
2022/04/07 11:53:52;;;;;;;2.00;1.50;;;11.70;99.90;;;;;;5057581;28;20458;-41
2022/04/07 11:56:20;;;;;;;1.73;1.10;;;11.90;99.90;;;;;;5054720;28;21006;-40
2022/04/07 11:58:56;;;;;;;4.10;1.07;;;11.70;99.90;;;;;;5050578;28;20429;-39
2022/04/07 12:01:23;;;;;;;3.60;1.10;;;11.70;99.90;;;;;;5054004;28;20533;-40
2022/04/07 12:04:02;;;;;;;1.07;0.97;;;11.70;99.90;;;;;;5069010;28;20418;-38
2022/04/07 12:06:30;;;;;;;1.23;1.00;;;11.70;99.90;;;;;;5062387;28;20481;-37
2022/04/07 12:08:57;;;;;;;1.30;1.20;;;11.90;99.90;;;;;;5052208;28;20425;-38
2022/04/07 12:11:24;;;;;;;1.90;1.20;;;12.20;99.90;;;;;;5050148;28;20432;-37
2022/04/07 12:13:54;;;;;;;1.53;1.30;;;12.20;99.90;;;;;;5050335;28;20428;-38
2022/04/07 12:16:24;;;;;;;2.27;1.17;;;12.50;99.90;;;;;;5048542;28;20493;-39
2022/04/07 12:19:00;;;;;;;2.87;1.10;;;12.70;99.90;;;;;;5079643;28;20510;-40
2022/04/07 12:21:27;;;;;;;1.93;1.10;;;13.00;99.90;;;;;;5048950;28;20431;-41
2022/04/07 12:24:13;;;;;;;1.40;1.27;;;13.00;99.90;;;;;;5051555;28;20425;-40
2022/04/07 12:26:55;;;;;;;1.83;0.97;;;13.10;99.90;;;;;;5058481;28;20428;-38
2022/04/07 12:29:24;;;;;;;2.90;1.43;;;13.40;99.90;;;;;;5049995;28;20449;-36
2022/04/07 12:32:07;;;;;;;3.57;0.90;;;13.50;99.90;;;;;;5053086;28;20780;-35
2022/04/07 12:34:55;;;;;;;1.70;0.93;;;13.60;99.90;;;;;;5068064;28;20422;-39
2022/04/07 12:37:33;;;;;;;2.87;0.90;;;13.50;96.70;;;;;;5049480;28;20443;-37
2022/04/07 12:39:59;;;;;;;2.30;1.07;;;13.30;97.60;;;;;;5056160;28;20478;-37
2022/04/07 12:42:25;;;;;;;4.30;1.03;;;13.00;96.70;;;;;;5049648;28;20511;-39
2022/04/07 12:45:07;;;;;;;4.17;2.00;;;12.90;99.20;;;;;;5049347;28;20502;-40
2022/04/07 12:47:33;;;;;;;4.87;2.63;;;12.60;99.90;;;;;;5049562;28;20186;-38
2022/04/07 12:50:01;;;;;;;3.10;2.37;;;12.30;99.90;;;;;;5066550;28;20807;-38
2022/04/07 12:52:35;;;;;;;3.13;2.40;;;11.90;99.90;;;;;;5049317;28;20428;-37